createdAt,value
2023-05-06T00:11:35.938Z,82.83
2023-05-06T00:23:36.366Z,83.40
2023-05-06T00:35:36.846Z,82.67
2023-05-06T00:47:37.252Z,85.01
2023-05-06T00:59:37.749Z,91.66
2023-05-06T01:11:38.176Z,91.36
2023-05-06T01:23:38.628Z,96.31
2023-05-06T01:35:39.072Z,92.61
2023-05-06T01:47:39.604Z,85.13
2023-05-06T01:59:39.965Z,87.51
2023-05-06T02:11:40.423Z,84.28
2023-05-06T02:23:40.904Z,86.95
2023-05-06T02:35:41.399Z,85.78
2023-05-06T02:47:41.798Z,86.81
2023-05-06T02:59:42.243Z,89.19
2023-05-06T03:11:42.698Z,84.76
2023-05-06T03:23:43.185Z,88.96
2023-05-06T03:35:43.601Z,85.91
2023-05-06T03:47:44.105Z,87.00
2023-05-06T03:59:44.507Z,87.65
2023-05-06T04:11:44.998Z,86.98
2023-05-06T04:23:45.430Z,91.46
2023-05-06T04:35:45.882Z,92.14
2023-05-06T04:47:46.403Z,92.64
2023-05-06T04:59:46.832Z,92.53
2023-05-06T05:11:47.264Z,91.04
2023-05-06T05:23:47.686Z,87.36
2023-05-06T05:35:48.167Z,87.16
2023-05-06T05:47:48.657Z,86.94
2023-05-06T05:59:49.065Z,87.21
2023-05-06T06:11:49.487Z,86.65
2023-05-06T06:23:49.930Z,87.33
2023-05-06T06:35:50.447Z,84.67
2023-05-06T06:47:50.890Z,82.74
2023-05-06T06:59:51.350Z,81.80
2023-05-06T07:11:51.783Z,84.04
2023-05-06T07:23:52.244Z,78.51
2023-05-06T07:35:52.731Z,78.98
2023-05-06T07:47:53.294Z,77.85
2023-05-06T07:59:53.617Z,76.62
2023-05-06T08:11:54.092Z,72.26
2023-05-06T08:23:54.511Z,67.78
2023-05-06T08:35:54.947Z,60.76
2023-05-06T08:47:55.464Z,56.74
2023-05-06T08:59:55.919Z,57.02
2023-05-06T09:11:56.309Z,58.58
2023-05-06T09:23:56.773Z,56.81
2023-05-06T09:35:57.275Z,57.78
2023-05-06T09:47:57.763Z,58.06
2023-05-06T09:59:58.163Z,55.98
2023-05-06T10:11:58.604Z,52.85
2023-05-06T10:23:59.050Z,52.60
2023-05-06T10:35:59.527Z,52.09
2023-05-06T10:48:00.077Z,48.00
2023-05-06T11:00:00.409Z,47.86
2023-05-06T11:12:00.899Z,48.66
2023-05-06T11:24:01.364Z,51.86
2023-05-06T11:36:01.786Z,51.48
2023-05-06T11:48:02.371Z,53.84
2023-05-06T12:00:02.689Z,50.81
2023-05-06T12:12:03.210Z,52.72
2023-05-06T12:24:03.664Z,55.15
2023-05-06T12:36:04.085Z,57.52
2023-05-06T12:48:04.558Z,59.37
2023-05-06T13:00:05.179Z,66.46
2023-05-06T13:12:05.460Z,75.72
2023-05-06T13:24:05.891Z,80.82
2023-05-06T13:36:06.380Z,78.83
2023-05-06T13:48:06.865Z,64.85
2023-05-06T14:00:07.285Z,50.72
2023-05-06T14:12:07.728Z,52.20
2023-05-06T14:24:08.291Z,61.20
2023-05-06T14:36:08.657Z,57.63
2023-05-06T14:48:09.109Z,63.65
2023-05-06T15:00:09.530Z,76.87
2023-05-06T15:12:10.011Z,75.59
2023-05-06T15:24:10.507Z,68.09
2023-05-06T15:36:10.914Z,62.23
2023-05-06T15:48:11.463Z,57.37
2023-05-06T16:00:12.199Z,59.52
2023-05-06T16:12:12.331Z,53.77
2023-05-06T16:24:12.978Z,64.05
2023-05-06T16:36:13.953Z,62.79
2023-05-06T16:48:13.767Z,69.92
2023-05-06T17:00:14.226Z,73.61
2023-05-06T17:12:14.546Z,76.22
2023-05-06T17:24:15.029Z,80.64
2023-05-06T17:36:15.464Z,77.39
2023-05-06T17:48:15.935Z,79.60
2023-05-06T18:00:16.338Z,80.87
2023-05-06T18:12:16.814Z,85.04
2023-05-06T18:24:17.354Z,88.34
2023-05-06T18:36:17.761Z,88.31
2023-05-06T18:48:18.208Z,88.35
2023-05-06T19:00:18.647Z,88.09
2023-05-06T19:12:19.168Z,88.14
2023-05-06T19:24:19.592Z,91.98
2023-05-06T19:36:20.114Z,89.87
2023-05-06T19:48:20.485Z,87.63
2023-05-06T20:00:20.968Z,93.81
2023-05-06T20:12:21.428Z,88.39
2023-05-06T20:24:21.837Z,87.53
2023-05-06T20:36:22.301Z,87.21
2023-05-06T20:48:22.745Z,91.99
2023-05-06T21:00:23.220Z,88.83
2023-05-06T21:12:23.622Z,87.91
2023-05-06T21:24:24.090Z,89.34
2023-05-06T21:36:24.551Z,88.00
2023-05-06T21:48:25.016Z,89.15
2023-05-06T22:00:25.480Z,88.53
2023-05-06T22:12:25.915Z,88.09
2023-05-06T22:24:26.390Z,90.35
2023-05-06T22:36:26.864Z,90.51
2023-05-06T22:48:27.280Z,95.12
2023-05-06T23:00:27.729Z,95.91
2023-05-06T23:12:28.169Z,95.11
2023-05-06T23:24:28.650Z,96.72
2023-05-06T23:36:29.106Z,94.36
2023-05-06T23:48:29.533Z,100.00
